sensor_id;sensor_type;location;lat;lon;timestamp;P1;durP1;ratioP1;P2;durP2;ratioP2
10657;SDS011;5377;43.276;26.930;2024-03-07T00:02:19;27.33;;;16.77;;
10657;SDS011;5377;43.276;26.930;2024-03-07T00:04:45;22.50;;;15.90;;
10657;SDS011;5377;43.276;26.930;2024-03-07T00:07:18;23.47;;;16.47;;
10657;SDS011;5377;43.276;26.930;2024-03-07T00:10:08;21.77;;;15.37;;
10657;SDS011;5377;43.276;26.930;2024-03-07T00:12:35;24.50;;;16.63;;
10657;SDS011;5377;43.276;26.930;2024-03-07T00:15:02;24.87;;;15.87;;
10657;SDS011;5377;43.276;26.930;2024-03-07T00:17:30;20.57;;;15.57;;
10657;SDS011;5377;43.276;26.930;2024-03-07T00:19:57;26.93;;;15.90;;
10657;SDS011;5377;43.276;26.930;2024-03-07T00:22:23;21.57;;;14.80;;
10657;SDS011;5377;43.276;26.930;2024-03-07T00:24:54;22.43;;;15.17;;
10657;SDS011;5377;43.276;26.930;2024-03-07T00:27:21;23.03;;;15.37;;
10657;SDS011;5377;43.276;26.930;2024-03-07T00:29:48;21.87;;;15.53;;
10657;SDS011;5377;43.276;26.930;2024-03-07T00:32:18;25.57;;;15.67;;
10657;SDS011;5377;43.276;26.930;2024-03-07T00:34:46;22.40;;;14.70;;
10657;SDS011;5377;43.276;26.930;2024-03-07T00:37:13;21.83;;;15.63;;
10657;SDS011;5377;43.276;26.930;2024-03-07T00:39:39;26.97;;;17.17;;
10657;SDS011;5377;43.276;26.930;2024-03-07T00:42:06;24.23;;;15.80;;
10657;SDS011;5377;43.276;26.930;2024-03-07T00:44:36;27.97;;;15.70;;
10657;SDS011;5377;43.276;26.930;2024-03-07T00:47:21;18.70;;;12.90;;
10657;SDS011;5377;43.276;26.930;2024-03-07T00:50:03;18.97;;;13.00;;
10657;SDS011;5377;43.276;26.930;2024-03-07T00:52:30;20.93;;;14.37;;
10657;SDS011;5377;43.276;26.930;2024-03-07T00:54:57;19.87;;;14.23;;
10657;SDS011;5377;43.276;26.930;2024-03-07T00:57:24;24.20;;;15.57;;
10657;SDS011;5377;43.276;26.930;2024-03-07T00:59:50;24.43;;;14.90;;
10657;SDS011;5377;43.276;26.930;2024-03-07T01:02:17;23.03;;;15.07;;
10657;SDS011;5377;43.276;26.930;2024-03-07T01:04:45;23.20;;;15.43;;
10657;SDS011;5377;43.276;26.930;2024-03-07T01:07:13;21.07;;;14.13;;
10657;SDS011;5377;43.276;26.930;2024-03-07T01:10:00;19.57;;;13.50;;
10657;SDS011;5377;43.276;26.930;2024-03-07T01:12:40;23.60;;;13.80;;
10657;SDS011;5377;43.276;26.930;2024-03-07T01:15:25;20.87;;;13.13;;
10657;SDS011;5377;43.276;26.930;2024-03-07T01:18:09;20.77;;;11.77;;
10657;SDS011;5377;43.276;26.930;2024-03-07T01:20:35;17.70;;;12.77;;
10657;SDS011;5377;43.276;26.930;2024-03-07T01:23:03;25.13;;;15.50;;
10657;SDS011;5377;43.276;26.930;2024-03-07T01:25:29;21.30;;;14.83;;
10657;SDS011;5377;43.276;26.930;2024-03-07T01:27:58;25.03;;;16.00;;
10657;SDS011;5377;43.276;26.930;2024-03-07T01:30:25;29.63;;;17.77;;
10657;SDS011;5377;43.276;26.930;2024-03-07T01:32:53;29.43;;;17.00;;
10657;SDS011;5377;43.276;26.930;2024-03-07T01:35:19;21.73;;;13.80;;
10657;SDS011;5377;43.276;26.930;2024-03-07T01:37:46;27.47;;;16.80;;
10657;SDS011;5377;43.276;26.930;2024-03-07T01:40:14;24.87;;;16.57;;
10657;SDS011;5377;43.276;26.930;2024-03-07T01:42:40;23.23;;;15.40;;
10657;SDS011;5377;43.276;26.930;2024-03-07T01:45:07;25.70;;;15.13;;
10657;SDS011;5377;43.276;26.930;2024-03-07T01:47:34;24.47;;;14.97;;
10657;SDS011;5377;43.276;26.930;2024-03-07T01:50:03;21.10;;;14.73;;
10657;SDS011;5377;43.276;26.930;2024-03-07T01:52:35;21.50;;;14.23;;
10657;SDS011;5377;43.276;26.930;2024-03-07T01:55:07;19.63;;;12.53;;
10657;SDS011;5377;43.276;26.930;2024-03-07T01:57:42;25.33;;;13.77;;
10657;SDS011;5377;43.276;26.930;2024-03-07T02:00:13;18.53;;;12.67;;
10657;SDS011;5377;43.276;26.930;2024-03-07T02:02:48;17.60;;;12.33;;
10657;SDS011;5377;43.276;26.930;2024-03-07T02:05:14;19.53;;;11.83;;
10657;SDS011;5377;43.276;26.930;2024-03-07T02:07:42;22.63;;;13.53;;
10657;SDS011;5377;43.276;26.930;2024-03-07T02:10:12;23.90;;;13.53;;
10657;SDS011;5377;43.276;26.930;2024-03-07T02:12:56;20.47;;;12.97;;
10657;SDS011;5377;43.276;26.930;2024-03-07T02:15:23;19.37;;;13.17;;
10657;SDS011;5377;43.276;26.930;2024-03-07T02:17:50;21.53;;;13.17;;
10657;SDS011;5377;43.276;26.930;2024-03-07T02:20:16;24.97;;;14.07;;
10657;SDS011;5377;43.276;26.930;2024-03-07T02:22:44;17.37;;;13.10;;
10657;SDS011;5377;43.276;26.930;2024-03-07T02:28:13;19.40;;;13.87;;
10657;SDS011;5377;43.276;26.930;2024-03-07T02:30:52;22.13;;;13.70;;
10657;SDS011;5377;43.276;26.930;2024-03-07T02:33:36;21.90;;;14.00;;
10657;SDS011;5377;43.276;26.930;2024-03-07T02:36:18;21.03;;;12.87;;
10657;SDS011;5377;43.276;26.930;2024-03-07T02:38:48;22.17;;;13.40;;
10657;SDS011;5377;43.276;26.930;2024-03-07T02:41:15;20.87;;;13.83;;
10657;SDS011;5377;43.276;26.930;2024-03-07T02:43:41;22.93;;;14.07;;
10657;SDS011;5377;43.276;26.930;2024-03-07T02:46:08;18.53;;;14.07;;
10657;SDS011;5377;43.276;26.930;2024-03-07T02:48:36;23.67;;;16.20;;
10657;SDS011;5377;43.276;26.930;2024-03-07T02:51:04;22.27;;;15.03;;
10657;SDS011;5377;43.276;26.930;2024-03-07T02:53:31;22.23;;;14.63;;
10657;SDS011;5377;43.276;26.930;2024-03-07T02:55:59;22.73;;;15.80;;
10657;SDS011;5377;43.276;26.930;2024-03-07T02:58:25;21.20;;;15.00;;
10657;SDS011;5377;43.276;26.930;2024-03-07T03:00:56;18.97;;;14.13;;
10657;SDS011;5377;43.276;26.930;2024-03-07T03:03:23;23.80;;;14.37;;
10657;SDS011;5377;43.276;26.930;2024-03-07T03:05:49;26.57;;;15.33;;
10657;SDS011;5377;43.276;26.930;2024-03-07T03:08:16;19.00;;;13.03;;
10657;SDS011;5377;43.276;26.930;2024-03-07T03:10:43;19.10;;;13.10;;
10657;SDS011;5377;43.276;26.930;2024-03-07T03:13:11;19.13;;;13.77;;
10657;SDS011;5377;43.276;26.930;2024-03-07T03:15:37;19.47;;;12.70;;
10657;SDS011;5377;43.276;26.930;2024-03-07T03:18:04;20.00;;;13.27;;
10657;SDS011;5377;43.276;26.930;2024-03-07T03:20:31;22.90;;;13.70;;
10657;SDS011;5377;43.276;26.930;2024-03-07T03:22:59;24.07;;;13.47;;
10657;SDS011;5377;43.276;26.930;2024-03-07T03:25:28;21.00;;;13.97;;
10657;SDS011;5377;43.276;26.930;2024-03-07T03:27:54;22.37;;;15.27;;
10657;SDS011;5377;43.276;26.930;2024-03-07T03:30:22;22.43;;;14.07;;
10657;SDS011;5377;43.276;26.930;2024-03-07T03:32:49;20.77;;;14.87;;
10657;SDS011;5377;43.276;26.930;2024-03-07T03:35:15;26.27;;;15.43;;
10657;SDS011;5377;43.276;26.930;2024-03-07T03:37:42;22.23;;;15.17;;
10657;SDS011;5377;43.276;26.930;2024-03-07T03:40:09;25.80;;;15.27;;
10657;SDS011;5377;43.276;26.930;2024-03-07T03:42:36;20.53;;;16.07;;
10657;SDS011;5377;43.276;26.930;2024-03-07T03:45:03;25.77;;;15.57;;
10657;SDS011;5377;43.276;26.930;2024-03-07T03:47:34;29.03;;;15.10;;
10657;SDS011;5377;43.276;26.930;2024-03-07T03:50:02;22.60;;;15.10;;
10657;SDS011;5377;43.276;26.930;2024-03-07T03:52:29;25.87;;;15.57;;
10657;SDS011;5377;43.276;26.930;2024-03-07T03:54:55;24.10;;;15.63;;
10657;SDS011;5377;43.276;26.930;2024-03-07T03:57:22;26.27;;;16.10;;
10657;SDS011;5377;43.276;26.930;2024-03-07T03:59:49;31.70;;;16.63;;
10657;SDS011;5377;43.276;26.930;2024-03-07T04:02:15;25.63;;;16.07;;
10657;SDS011;5377;43.276;26.930;2024-03-07T04:04:43;23.53;;;15.10;;
10657;SDS011;5377;43.276;26.930;2024-03-07T04:07:10;28.67;;;14.97;;
10657;SDS011;5377;43.276;26.930;2024-03-07T04:09:37;25.03;;;16.43;;
10657;SDS011;5377;43.276;26.930;2024-03-07T04:12:04;24.53;;;16.93;;
10657;SDS011;5377;43.276;26.930;2024-03-07T04:14:30;28.97;;;16.67;;
10657;SDS011;5377;43.276;26.930;2024-03-07T04:16:58;22.00;;;14.70;;
10657;SDS011;5377;43.276;26.930;2024-03-07T04:19:25;25.70;;;15.83;;
10657;SDS011;5377;43.276;26.930;2024-03-07T04:21:52;23.40;;;15.50;;
10657;SDS011;5377;43.276;26.930;2024-03-07T04:24:19;25.37;;;16.67;;
10657;SDS011;5377;43.276;26.930;2024-03-07T04:26:46;26.47;;;16.70;;
10657;SDS011;5377;43.276;26.930;2024-03-07T04:29:12;28.93;;;19.30;;
10657;SDS011;5377;43.276;26.930;2024-03-07T04:31:39;30.07;;;16.40;;
10657;SDS011;5377;43.276;26.930;2024-03-07T04:34:05;27.10;;;17.23;;
10657;SDS011;5377;43.276;26.930;2024-03-07T04:36:32;30.43;;;16.73;;
10657;SDS011;5377;43.276;26.930;2024-03-07T04:39:01;24.63;;;16.47;;
10657;SDS011;5377;43.276;26.930;2024-03-07T04:41:29;27.37;;;16.90;;
10657;SDS011;5377;43.276;26.930;2024-03-07T04:43:56;30.50;;;18.60;;
10657;SDS011;5377;43.276;26.930;2024-03-07T04:46:25;28.73;;;18.50;;
10657;SDS011;5377;43.276;26.930;2024-03-07T04:48:50;31.87;;;17.53;;
10657;SDS011;5377;43.276;26.930;2024-03-07T04:51:17;25.83;;;17.73;;
10657;SDS011;5377;43.276;26.930;2024-03-07T04:53:43;29.63;;;20.87;;
10657;SDS011;5377;43.276;26.930;2024-03-07T04:56:11;34.93;;;23.43;;
10657;SDS011;5377;43.276;26.930;2024-03-07T04:58:39;41.10;;;28.43;;
10657;SDS011;5377;43.276;26.930;2024-03-07T05:01:06;32.53;;;22.57;;
10657;SDS011;5377;43.276;26.930;2024-03-07T05:03:32;35.63;;;21.47;;
10657;SDS011;5377;43.276;26.930;2024-03-07T05:05:59;37.60;;;21.60;;
10657;SDS011;5377;43.276;26.930;2024-03-07T05:08:25;39.37;;;23.70;;
10657;SDS011;5377;43.276;26.930;2024-03-07T05:10:52;32.23;;;21.67;;
10657;SDS011;5377;43.276;26.930;2024-03-07T05:13:20;44.50;;;24.97;;
10657;SDS011;5377;43.276;26.930;2024-03-07T05:15:47;37.17;;;25.07;;
10657;SDS011;5377;43.276;26.930;2024-03-07T05:18:15;34.50;;;26.67;;
10657;SDS011;5377;43.276;26.930;2024-03-07T05:20:43;50.50;;;26.10;;
10657;SDS011;5377;43.276;26.930;2024-03-07T05:23:10;39.90;;;26.53;;
10657;SDS011;5377;43.276;26.930;2024-03-07T05:25:36;38.93;;;23.53;;
10657;SDS011;5377;43.276;26.930;2024-03-07T05:28:05;42.10;;;28.00;;
10657;SDS011;5377;43.276;26.930;2024-03-07T05:30:33;49.73;;;29.13;;
10657;SDS011;5377;43.276;26.930;2024-03-07T05:33:00;51.30;;;30.57;;
10657;SDS011;5377;43.276;26.930;2024-03-07T05:35:26;42.43;;;25.73;;
10657;SDS011;5377;43.276;26.930;2024-03-07T05:37:54;49.03;;;33.23;;
10657;SDS011;5377;43.276;26.930;2024-03-07T05:40:21;41.80;;;26.77;;
10657;SDS011;5377;43.276;26.930;2024-03-07T05:42:48;60.10;;;33.47;;
10657;SDS011;5377;43.276;26.930;2024-03-07T05:45:14;58.20;;;29.47;;
10657;SDS011;5377;43.276;26.930;2024-03-07T05:47:44;62.87;;;34.00;;
10657;SDS011;5377;43.276;26.930;2024-03-07T05:50:12;80.73;;;38.50;;
10657;SDS011;5377;43.276;26.930;2024-03-07T05:52:39;62.60;;;34.27;;
10657;SDS011;5377;43.276;26.930;2024-03-07T05:55:05;55.40;;;33.23;;
10657;SDS011;5377;43.276;26.930;2024-03-07T05:57:32;47.73;;;28.80;;
10657;SDS011;5377;43.276;26.930;2024-03-07T05:59:59;51.30;;;26.00;;
10657;SDS011;5377;43.276;26.930;2024-03-07T06:02:25;41.93;;;23.67;;
10657;SDS011;5377;43.276;26.930;2024-03-07T06:04:54;34.57;;;21.53;;
10657;SDS011;5377;43.276;26.930;2024-03-07T06:07:20;35.00;;;20.60;;
10657;SDS011;5377;43.276;26.930;2024-03-07T06:09:46;37.83;;;20.83;;
10657;SDS011;5377;43.276;26.930;2024-03-07T06:12:13;28.13;;;18.40;;
10657;SDS011;5377;43.276;26.930;2024-03-07T06:14:39;29.80;;;18.20;;
10657;SDS011;5377;43.276;26.930;2024-03-07T06:17:06;33.30;;;19.30;;
10657;SDS011;5377;43.276;26.930;2024-03-07T06:19:33;29.87;;;19.77;;
10657;SDS011;5377;43.276;26.930;2024-03-07T06:22:01;31.57;;;22.17;;
10657;SDS011;5377;43.276;26.930;2024-03-07T06:24:31;55.87;;;39.20;;
10657;SDS011;5377;43.276;26.930;2024-03-07T06:26:58;43.70;;;33.23;;
10657;SDS011;5377;43.276;26.930;2024-03-07T06:29:29;43.33;;;22.73;;
10657;SDS011;5377;43.276;26.930;2024-03-07T06:31:55;34.23;;;22.27;;
10657;SDS011;5377;43.276;26.930;2024-03-07T06:34:22;30.73;;;20.83;;
10657;SDS011;5377;43.276;26.930;2024-03-07T06:36:49;29.27;;;19.37;;
10657;SDS011;5377;43.276;26.930;2024-03-07T06:39:17;30.43;;;18.47;;
10657;SDS011;5377;43.276;26.930;2024-03-07T06:41:47;43.30;;;21.87;;
10657;SDS011;5377;43.276;26.930;2024-03-07T06:44:13;52.67;;;24.47;;
10657;SDS011;5377;43.276;26.930;2024-03-07T06:46:40;41.87;;;23.37;;
10657;SDS011;5377;43.276;26.930;2024-03-07T06:49:06;31.83;;;18.80;;
10657;SDS011;5377;43.276;26.930;2024-03-07T06:51:35;27.97;;;19.13;;
10657;SDS011;5377;43.276;26.930;2024-03-07T06:54:01;33.07;;;19.63;;
10657;SDS011;5377;43.276;26.930;2024-03-07T06:56:30;38.60;;;21.37;;
10657;SDS011;5377;43.276;26.930;2024-03-07T06:58:56;43.00;;;21.13;;
10657;SDS011;5377;43.276;26.930;2024-03-07T07:01:23;35.10;;;21.10;;
10657;SDS011;5377;43.276;26.930;2024-03-07T07:03:49;30.83;;;20.13;;
10657;SDS011;5377;43.276;26.930;2024-03-07T07:06:16;32.63;;;21.47;;
10657;SDS011;5377;43.276;26.930;2024-03-07T07:08:43;31.80;;;21.13;;
10657;SDS011;5377;43.276;26.930;2024-03-07T07:11:10;31.80;;;19.43;;
10657;SDS011;5377;43.276;26.930;2024-03-07T07:13:38;36.83;;;21.97;;
10657;SDS011;5377;43.276;26.930;2024-03-07T07:16:06;33.10;;;20.53;;
10657;SDS011;5377;43.276;26.930;2024-03-07T07:18:32;36.90;;;21.57;;
10657;SDS011;5377;43.276;26.930;2024-03-07T07:21:00;33.47;;;19.97;;
10657;SDS011;5377;43.276;26.930;2024-03-07T07:23:28;37.83;;;20.27;;
10657;SDS011;5377;43.276;26.930;2024-03-07T07:25:54;31.97;;;21.50;;
10657;SDS011;5377;43.276;26.930;2024-03-07T07:28:21;27.33;;;20.27;;
10657;SDS011;5377;43.276;26.930;2024-03-07T07:30:49;31.47;;;19.80;;
10657;SDS011;5377;43.276;26.930;2024-03-07T07:33:15;27.30;;;20.10;;
10657;SDS011;5377;43.276;26.930;2024-03-07T07:35:43;33.60;;;19.63;;
10657;SDS011;5377;43.276;26.930;2024-03-07T07:38:09;34.70;;;20.70;;
10657;SDS011;5377;43.276;26.930;2024-03-07T07:40:37;29.73;;;19.97;;
10657;SDS011;5377;43.276;26.930;2024-03-07T07:43:05;34.47;;;20.40;;
10657;SDS011;5377;43.276;26.930;2024-03-07T07:45:32;25.67;;;19.13;;
10657;SDS011;5377;43.276;26.930;2024-03-07T07:48:02;28.87;;;18.47;;
10657;SDS011;5377;43.276;26.930;2024-03-07T07:50:28;24.37;;;18.60;;
10657;SDS011;5377;43.276;26.930;2024-03-07T07:52:56;25.33;;;17.97;;
10657;SDS011;5377;43.276;26.930;2024-03-07T07:55:23;23.63;;;17.93;;
10657;SDS011;5377;43.276;26.930;2024-03-07T07:57:50;24.03;;;17.57;;
10657;SDS011;5377;43.276;26.930;2024-03-07T08:00:19;25.20;;;17.30;;
10657;SDS011;5377;43.276;26.930;2024-03-07T08:02:51;25.70;;;17.30;;
10657;SDS011;5377;43.276;26.930;2024-03-07T08:05:19;24.23;;;15.50;;
10657;SDS011;5377;43.276;26.930;2024-03-07T08:07:48;21.00;;;16.83;;
10657;SDS011;5377;43.276;26.930;2024-03-07T08:10:14;27.90;;;18.10;;
10657;SDS011;5377;43.276;26.930;2024-03-07T08:12:41;23.20;;;16.43;;
10657;SDS011;5377;43.276;26.930;2024-03-07T08:15:09;26.10;;;17.93;;
10657;SDS011;5377;43.276;26.930;2024-03-07T08:17:38;27.10;;;17.00;;
10657;SDS011;5377;43.276;26.930;2024-03-07T08:20:05;22.33;;;16.30;;
10657;SDS011;5377;43.276;26.930;2024-03-07T08:22:38;23.60;;;15.10;;
10657;SDS011;5377;43.276;26.930;2024-03-07T08:25:06;23.40;;;16.70;;
10657;SDS011;5377;43.276;26.930;2024-03-07T08:27:34;27.97;;;17.33;;
10657;SDS011;5377;43.276;26.930;2024-03-07T08:30:00;19.50;;;14.20;;
10657;SDS011;5377;43.276;26.930;2024-03-07T08:32:27;21.87;;;14.60;;
10657;SDS011;5377;43.276;26.930;2024-03-07T08:34:53;18.90;;;13.57;;
10657;SDS011;5377;43.276;26.930;2024-03-07T08:37:20;19.27;;;15.47;;
10657;SDS011;5377;43.276;26.930;2024-03-07T08:39:49;18.73;;;15.43;;
10657;SDS011;5377;43.276;26.930;2024-03-07T08:42:17;18.17;;;12.43;;
10657;SDS011;5377;43.276;26.930;2024-03-07T08:44:44;23.20;;;16.20;;
10657;SDS011;5377;43.276;26.930;2024-03-07T08:47:11;20.50;;;14.00;;
10657;SDS011;5377;43.276;26.930;2024-03-07T08:49:38;17.30;;;12.50;;
10657;SDS011;5377;43.276;26.930;2024-03-07T08:52:05;22.40;;;15.07;;
10657;SDS011;5377;43.276;26.930;2024-03-07T08:54:31;20.43;;;13.03;;
10657;SDS011;5377;43.276;26.930;2024-03-07T08:57:00;21.17;;;13.02;;
10657;SDS011;5377;43.276;26.930;2024-03-07T08:59:26;22.13;;;14.37;;
10657;SDS011;5377;43.276;26.930;2024-03-07T09:01:53;22.23;;;14.23;;
10657;SDS011;5377;43.276;26.930;2024-03-07T09:04:20;20.75;;;14.45;;
10657;SDS011;5377;43.276;26.930;2024-03-07T09:06:47;21.73;;;14.98;;
10657;SDS011;5377;43.276;26.930;2024-03-07T09:09:13;19.30;;;13.13;;
10657;SDS011;5377;43.276;26.930;2024-03-07T09:11:43;22.83;;;14.85;;
10657;SDS011;5377;43.276;26.930;2024-03-07T09:14:11;21.85;;;14.02;;
10657;SDS011;5377;43.276;26.930;2024-03-07T09:16:37;24.48;;;14.50;;
10657;SDS011;5377;43.276;26.930;2024-03-07T09:19:05;24.35;;;13.55;;
10657;SDS011;5377;43.276;26.930;2024-03-07T09:21:31;18.33;;;13.43;;
10657;SDS011;5377;43.276;26.930;2024-03-07T09:23:59;23.42;;;14.43;;
10657;SDS011;5377;43.276;26.930;2024-03-07T09:26:26;19.75;;;14.13;;
10657;SDS011;5377;43.276;26.930;2024-03-07T09:28:53;20.58;;;14.63;;
10657;SDS011;5377;43.276;26.930;2024-03-07T09:31:22;20.60;;;14.20;;
10657;SDS011;5377;43.276;26.930;2024-03-07T09:33:48;19.85;;;13.82;;
10657;SDS011;5377;43.276;26.930;2024-03-07T09:36:15;20.52;;;13.65;;
10657;SDS011;5377;43.276;26.930;2024-03-07T09:38:44;21.55;;;12.30;;
10657;SDS011;5377;43.276;26.930;2024-03-07T09:41:10;21.00;;;13.70;;
10657;SDS011;5377;43.276;26.930;2024-03-07T09:43:37;17.63;;;12.88;;
10657;SDS011;5377;43.276;26.930;2024-03-07T09:46:04;18.30;;;11.63;;
10657;SDS011;5377;43.276;26.930;2024-03-07T09:48:33;20.38;;;12.98;;
10657;SDS011;5377;43.276;26.930;2024-03-07T09:50:59;21.42;;;12.57;;
10657;SDS011;5377;43.276;26.930;2024-03-07T09:53:27;20.52;;;13.15;;
10657;SDS011;5377;43.276;26.930;2024-03-07T09:55:54;18.65;;;11.45;;
10657;SDS011;5377;43.276;26.930;2024-03-07T09:58:20;18.75;;;12.35;;
10657;SDS011;5377;43.276;26.930;2024-03-07T10:00:47;15.27;;;11.43;;
10657;SDS011;5377;43.276;26.930;2024-03-07T10:03:16;16.55;;;13.15;;
10657;SDS011;5377;43.276;26.930;2024-03-07T10:05:46;24.83;;;13.95;;
10657;SDS011;5377;43.276;26.930;2024-03-07T10:08:13;20.55;;;12.90;;
10657;SDS011;5377;43.276;26.930;2024-03-07T10:10:39;16.35;;;12.80;;
10657;SDS011;5377;43.276;26.930;2024-03-07T10:13:06;17.40;;;11.70;;
10657;SDS011;5377;43.276;26.930;2024-03-07T10:15:33;19.00;;;13.70;;
10657;SDS011;5377;43.276;26.930;2024-03-07T10:18:00;20.15;;;12.98;;
10657;SDS011;5377;43.276;26.930;2024-03-07T10:20:27;16.30;;;13.27;;
10657;SDS011;5377;43.276;26.930;2024-03-07T10:22:54;19.42;;;12.82;;
10657;SDS011;5377;43.276;26.930;2024-03-07T10:25:21;18.23;;;10.77;;
10657;SDS011;5377;43.276;26.930;2024-03-07T10:27:50;21.05;;;14.23;;
10657;SDS011;5377;43.276;26.930;2024-03-07T10:30:17;22.00;;;13.82;;
10657;SDS011;5377;43.276;26.930;2024-03-07T10:32:46;21.20;;;13.48;;
10657;SDS011;5377;43.276;26.930;2024-03-07T10:35:13;16.63;;;12.00;;
10657;SDS011;5377;43.276;26.930;2024-03-07T10:37:40;21.58;;;12.02;;
10657;SDS011;5377;43.276;26.930;2024-03-07T10:40:12;20.08;;;13.30;;
10657;SDS011;5377;43.276;26.930;2024-03-07T10:42:44;17.08;;;12.32;;
10657;SDS011;5377;43.276;26.930;2024-03-07T10:45:11;19.02;;;12.82;;
10657;SDS011;5377;43.276;26.930;2024-03-07T10:47:38;18.73;;;11.38;;
10657;SDS011;5377;43.276;26.930;2024-03-07T10:50:07;19.75;;;12.60;;
10657;SDS011;5377;43.276;26.930;2024-03-07T10:52:40;16.40;;;12.23;;
10657;SDS011;5377;43.276;26.930;2024-03-07T10:55:12;16.98;;;11.90;;
10657;SDS011;5377;43.276;26.930;2024-03-07T10:57:46;18.73;;;12.45;;
10657;SDS011;5377;43.276;26.930;2024-03-07T11:00:14;18.08;;;13.07;;
10657;SDS011;5377;43.276;26.930;2024-03-07T11:02:55;18.55;;;12.23;;
10657;SDS011;5377;43.276;26.930;2024-03-07T11:05:23;16.93;;;11.80;;
10657;SDS011;5377;43.276;26.930;2024-03-07T11:07:54;16.52;;;12.45;;
10657;SDS011;5377;43.276;26.930;2024-03-07T11:10:22;19.17;;;11.73;;
10657;SDS011;5377;43.276;26.930;2024-03-07T11:12:49;19.30;;;12.75;;
10657;SDS011;5377;43.276;26.930;2024-03-07T11:15:16;20.45;;;12.77;;
10657;SDS011;5377;43.276;26.930;2024-03-07T11:17:45;19.13;;;13.18;;
10657;SDS011;5377;43.276;26.930;2024-03-07T11:20:18;17.33;;;13.60;;
10657;SDS011;5377;43.276;26.930;2024-03-07T11:22:46;22.38;;;13.40;;
10657;SDS011;5377;43.276;26.930;2024-03-07T11:25:12;20.23;;;13.57;;
10657;SDS011;5377;43.276;26.930;2024-03-07T11:27:41;18.50;;;11.73;;
10657;SDS011;5377;43.276;26.930;2024-03-07T11:30:17;19.90;;;12.13;;
10657;SDS011;5377;43.276;26.930;2024-03-07T11:32:43;21.30;;;13.33;;
10657;SDS011;5377;43.276;26.930;2024-03-07T11:35:11;31.17;;;14.27;;
10657;SDS011;5377;43.276;26.930;2024-03-07T11:37:39;20.97;;;13.07;;
10657;SDS011;5377;43.276;26.930;2024-03-07T11:40:09;17.83;;;13.03;;
10657;SDS011;5377;43.276;26.930;2024-03-07T11:42:45;19.43;;;14.10;;
10657;SDS011;5377;43.276;26.930;2024-03-07T11:45:13;19.25;;;11.82;;
10657;SDS011;5377;43.276;26.930;2024-03-07T11:47:50;17.87;;;13.63;;
10657;SDS011;5377;43.276;26.930;2024-03-07T11:50:17;15.40;;;11.57;;
10657;SDS011;5377;43.276;26.930;2024-03-07T11:52:45;22.30;;;13.13;;
10657;SDS011;5377;43.276;26.930;2024-03-07T11:55:11;15.57;;;10.77;;
10657;SDS011;5377;43.276;26.930;2024-03-07T11:57:38;20.67;;;13.63;;
10657;SDS011;5377;43.276;26.930;2024-03-07T12:00:11;13.83;;;10.57;;
10657;SDS011;5377;43.276;26.930;2024-03-07T12:02:38;14.77;;;12.00;;
10657;SDS011;5377;43.276;26.930;2024-03-07T12:05:05;19.33;;;12.63;;
10657;SDS011;5377;43.276;26.930;2024-03-07T12:07:32;16.13;;;11.80;;
10657;SDS011;5377;43.276;26.930;2024-03-07T12:09:58;20.17;;;13.10;;
10657;SDS011;5377;43.276;26.930;2024-03-07T12:12:28;16.57;;;12.50;;
10657;SDS011;5377;43.276;26.930;2024-03-07T12:14:55;19.20;;;11.70;;
10657;SDS011;5377;43.276;26.930;2024-03-07T12:17:23;25.97;;;13.23;;
10657;SDS011;5377;43.276;26.930;2024-03-07T12:19:50;15.37;;;12.40;;
10657;SDS011;5377;43.276;26.930;2024-03-07T12:22:18;16.77;;;12.67;;
10657;SDS011;5377;43.276;26.930;2024-03-07T12:24:48;18.23;;;13.50;;
10657;SDS011;5377;43.276;26.930;2024-03-07T12:27:15;15.63;;;11.47;;
10657;SDS011;5377;43.276;26.930;2024-03-07T12:29:42;17.40;;;11.13;;
10657;SDS011;5377;43.276;26.930;2024-03-07T12:32:09;18.50;;;13.53;;
10657;SDS011;5377;43.276;26.930;2024-03-07T12:34:40;22.13;;;15.70;;
10657;SDS011;5377;43.276;26.930;2024-03-07T12:37:07;15.73;;;12.03;;
10657;SDS011;5377;43.276;26.930;2024-03-07T12:39:34;18.37;;;13.73;;
10657;SDS011;5377;43.276;26.930;2024-03-07T12:42:04;17.80;;;13.33;;
10657;SDS011;5377;43.276;26.930;2024-03-07T12:44:40;17.43;;;10.60;;
10657;SDS011;5377;43.276;26.930;2024-03-07T12:47:09;20.13;;;12.83;;
10657;SDS011;5377;43.276;26.930;2024-03-07T12:49:36;17.50;;;12.13;;
10657;SDS011;5377;43.276;26.930;2024-03-07T12:52:04;19.80;;;11.97;;
10657;SDS011;5377;43.276;26.930;2024-03-07T12:54:32;17.73;;;11.13;;
10657;SDS011;5377;43.276;26.930;2024-03-07T12:56:59;17.37;;;11.60;;
10657;SDS011;5377;43.276;26.930;2024-03-07T12:59:25;17.43;;;11.90;;
10657;SDS011;5377;43.276;26.930;2024-03-07T13:01:52;15.90;;;11.07;;
10657;SDS011;5377;43.276;26.930;2024-03-07T13:04:19;19.20;;;10.90;;
10657;SDS011;5377;43.276;26.930;2024-03-07T13:06:45;16.43;;;12.57;;
10657;SDS011;5377;43.276;26.930;2024-03-07T13:09:13;17.67;;;10.60;;
10657;SDS011;5377;43.276;26.930;2024-03-07T13:11:40;19.33;;;12.17;;
10657;SDS011;5377;43.276;26.930;2024-03-07T13:14:11;17.60;;;12.70;;
10657;SDS011;5377;43.276;26.930;2024-03-07T13:16:38;21.00;;;13.47;;
10657;SDS011;5377;43.276;26.930;2024-03-07T13:19:04;22.67;;;12.80;;
10657;SDS011;5377;43.276;26.930;2024-03-07T13:21:31;15.87;;;11.77;;
10657;SDS011;5377;43.276;26.930;2024-03-07T13:24:00;17.27;;;11.73;;
10657;SDS011;5377;43.276;26.930;2024-03-07T13:26:28;16.60;;;13.07;;
10657;SDS011;5377;43.276;26.930;2024-03-07T13:28:57;17.53;;;12.20;;
10657;SDS011;5377;43.276;26.930;2024-03-07T13:31:25;19.17;;;14.17;;
10657;SDS011;5377;43.276;26.930;2024-03-07T13:33:52;19.07;;;12.37;;
10657;SDS011;5377;43.276;26.930;2024-03-07T13:36:20;22.70;;;15.33;;
10657;SDS011;5377;43.276;26.930;2024-03-07T13:38:49;20.07;;;13.47;;
10657;SDS011;5377;43.276;26.930;2024-03-07T13:41:17;22.63;;;15.63;;
10657;SDS011;5377;43.276;26.930;2024-03-07T13:43:45;27.33;;;21.03;;
10657;SDS011;5377;43.276;26.930;2024-03-07T13:46:12;20.37;;;13.70;;
10657;SDS011;5377;43.276;26.930;2024-03-07T13:48:39;31.27;;;22.80;;
10657;SDS011;5377;43.276;26.930;2024-03-07T13:51:07;24.40;;;15.07;;
10657;SDS011;5377;43.276;26.930;2024-03-07T13:53:34;15.60;;;13.90;;
10657;SDS011;5377;43.276;26.930;2024-03-07T13:56:23;21.30;;;15.07;;
10657;SDS011;5377;43.276;26.930;2024-03-07T14:01:52;23.73;;;16.07;;
10657;SDS011;5377;43.276;26.930;2024-03-07T14:04:39;23.13;;;16.47;;
10657;SDS011;5377;43.276;26.930;2024-03-07T14:07:20;22.73;;;15.67;;
10657;SDS011;5377;43.276;26.930;2024-03-07T14:09:54;23.00;;;15.60;;
10657;SDS011;5377;43.276;26.930;2024-03-07T14:12:34;20.23;;;15.90;;
10657;SDS011;5377;43.276;26.930;2024-03-07T14:18:01;27.17;;;17.30;;
10657;SDS011;5377;43.276;26.930;2024-03-07T14:23:26;20.47;;;15.67;;
10657;SDS011;5377;43.276;26.930;2024-03-07T14:26:02;26.50;;;19.20;;
10657;SDS011;5377;43.276;26.930;2024-03-07T14:31:21;24.07;;;17.80;;
10657;SDS011;5377;43.276;26.930;2024-03-07T14:34:00;26.27;;;18.00;;
10657;SDS011;5377;43.276;26.930;2024-03-07T14:36:32;24.30;;;16.40;;
10657;SDS011;5377;43.276;26.930;2024-03-07T14:39:02;26.87;;;17.27;;
10657;SDS011;5377;43.276;26.930;2024-03-07T14:41:40;26.27;;;18.83;;
10657;SDS011;5377;43.276;26.930;2024-03-07T14:44:09;26.60;;;17.43;;